sensor_id;sensor_type;location;lat;lon;timestamp;temperature;humidity
2300;DHT22;1158;48.750;9.078;2023-02-13T00:00:24;-2.60;99.90
2300;DHT22;1158;48.750;9.078;2023-02-13T00:02:51;-2.60;99.90
2300;DHT22;1158;48.750;9.078;2023-02-13T00:05:18;-2.60;99.90
2300;DHT22;1158;48.750;9.078;2023-02-13T00:07:45;-2.60;99.90
2300;DHT22;1158;48.750;9.078;2023-02-13T00:10:13;-2.60;99.90
2300;DHT22;1158;48.750;9.078;2023-02-13T00:12:40;-2.60;99.90
2300;DHT22;1158;48.750;9.078;2023-02-13T00:15:08;-2.60;99.90
2300;DHT22;1158;48.750;9.078;2023-02-13T00:17:35;-2.70;99.90
2300;DHT22;1158;48.750;9.078;2023-02-13T00:20:02;-2.70;99.90
2300;DHT22;1158;48.750;9.078;2023-02-13T00:22:28;-2.70;99.90
2300;DHT22;1158;48.750;9.078;2023-02-13T00:24:55;-2.80;99.90
2300;DHT22;1158;48.750;9.078;2023-02-13T00:27:23;-2.80;99.90
2300;DHT22;1158;48.750;9.078;2023-02-13T00:29:50;-2.70;99.90
2300;DHT22;1158;48.750;9.078;2023-02-13T00:32:17;-2.70;99.90
2300;DHT22;1158;48.750;9.078;2023-02-13T00:34:43;-2.80;99.90
2300;DHT22;1158;48.750;9.078;2023-02-13T00:37:10;-2.80;99.90
2300;DHT22;1158;48.750;9.078;2023-02-13T00:39:37;-2.80;99.90
2300;DHT22;1158;48.750;9.078;2023-02-13T00:42:04;-2.90;99.90
2300;DHT22;1158;48.750;9.078;2023-02-13T00:44:32;-2.80;99.90
2300;DHT22;1158;48.750;9.078;2023-02-13T00:46:59;-2.80;99.90
2300;DHT22;1158;48.750;9.078;2023-02-13T00:49:25;-2.80;99.90
2300;DHT22;1158;48.750;9.078;2023-02-13T00:51:52;-2.80;99.90
2300;DHT22;1158;48.750;9.078;2023-02-13T00:54:19;-2.80;99.90
2300;DHT22;1158;48.750;9.078;2023-02-13T00:56:46;-2.80;99.90
2300;DHT22;1158;48.750;9.078;2023-02-13T00:59:12;-2.80;99.90
2300;DHT22;1158;48.750;9.078;2023-02-13T01:01:41;-2.90;99.90
2300;DHT22;1158;48.750;9.078;2023-02-13T01:04:07;-3.00;99.90
2300;DHT22;1158;48.750;9.078;2023-02-13T01:06:34;-3.00;99.90
2300;DHT22;1158;48.750;9.078;2023-02-13T01:09:02;-3.10;99.90
2300;DHT22;1158;48.750;9.078;2023-02-13T01:11:30;-3.00;99.90
2300;DHT22;1158;48.750;9.078;2023-02-13T01:13:56;-3.00;99.90
2300;DHT22;1158;48.750;9.078;2023-02-13T01:16:23;-3.10;99.90
2300;DHT22;1158;48.750;9.078;2023-02-13T01:18:51;-3.00;99.90
2300;DHT22;1158;48.750;9.078;2023-02-13T01:21:20;-2.90;99.90
2300;DHT22;1158;48.750;9.078;2023-02-13T01:23:48;-2.90;99.90
2300;DHT22;1158;48.750;9.078;2023-02-13T01:26:18;-3.00;99.90
2300;DHT22;1158;48.750;9.078;2023-02-13T01:28:45;-3.00;99.90
2300;DHT22;1158;48.750;9.078;2023-02-13T01:31:12;-3.10;99.90
2300;DHT22;1158;48.750;9.078;2023-02-13T01:33:39;-3.10;99.90
2300;DHT22;1158;48.750;9.078;2023-02-13T01:36:09;-3.10;99.90
2300;DHT22;1158;48.750;9.078;2023-02-13T01:38:36;-3.20;99.90
2300;DHT22;1158;48.750;9.078;2023-02-13T01:41:03;-3.20;99.90
2300;DHT22;1158;48.750;9.078;2023-02-13T01:43:48;-3.20;99.90
2300;DHT22;1158;48.750;9.078;2023-02-13T01:46:18;-3.30;99.90
2300;DHT22;1158;48.750;9.078;2023-02-13T01:48:47;-3.30;99.90
2300;DHT22;1158;48.750;9.078;2023-02-13T01:51:20;-3.20;99.90
2300;DHT22;1158;48.750;9.078;2023-02-13T01:53:50;-3.20;99.90
2300;DHT22;1158;48.750;9.078;2023-02-13T01:56:21;-3.20;99.90
2300;DHT22;1158;48.750;9.078;2023-02-13T01:58:53;-3.20;99.90
2300;DHT22;1158;48.750;9.078;2023-02-13T02:01:22;-3.20;99.90
2300;DHT22;1158;48.750;9.078;2023-02-13T02:03:51;-3.30;99.90
2300;DHT22;1158;48.750;9.078;2023-02-13T02:06:24;-3.40;99.90
2300;DHT22;1158;48.750;9.078;2023-02-13T02:08:53;-3.40;99.90
2300;DHT22;1158;48.750;9.078;2023-02-13T02:11:26;-3.40;99.90
2300;DHT22;1158;48.750;9.078;2023-02-13T02:13:57;-3.30;99.90
2300;DHT22;1158;48.750;9.078;2023-02-13T02:16:24;-3.30;99.90
2300;DHT22;1158;48.750;9.078;2023-02-13T02:18:51;-3.30;99.90
2300;DHT22;1158;48.750;9.078;2023-02-13T02:25:11;-3.40;99.90
2300;DHT22;1158;48.750;9.078;2023-02-13T02:31:21;-3.40;99.90
2300;DHT22;1158;48.750;9.078;2023-02-13T02:34:07;-3.50;99.90
2300;DHT22;1158;48.750;9.078;2023-02-13T02:36:46;-3.50;99.90
2300;DHT22;1158;48.750;9.078;2023-02-13T02:39:25;-3.40;99.90
2300;DHT22;1158;48.750;9.078;2023-02-13T02:42:02;-3.40;99.90
2300;DHT22;1158;48.750;9.078;2023-02-13T02:44:40;-3.40;99.90
2300;DHT22;1158;48.750;9.078;2023-02-13T02:47:14;-3.40;99.90
2300;DHT22;1158;48.750;9.078;2023-02-13T02:50:21;-3.50;99.90
2300;DHT22;1158;48.750;9.078;2023-02-13T02:52:58;-3.50;99.90
2300;DHT22;1158;48.750;9.078;2023-02-13T02:55:36;-3.60;99.90
2300;DHT22;1158;48.750;9.078;2023-02-13T02:58:10;-3.60;99.90
2300;DHT22;1158;48.750;9.078;2023-02-13T03:00:56;-3.60;99.90
2300;DHT22;1158;48.750;9.078;2023-02-13T03:03:42;-3.60;99.90
2300;DHT22;1158;48.750;9.078;2023-02-13T03:06:33;-3.60;99.90
2300;DHT22;1158;48.750;9.078;2023-02-13T03:09:04;-3.60;99.90
2300;DHT22;1158;48.750;9.078;2023-02-13T03:11:52;-3.60;99.90
2300;DHT22;1158;48.750;9.078;2023-02-13T03:14:38;-3.60;99.90
2300;DHT22;1158;48.750;9.078;2023-02-13T03:17:05;-3.60;99.90
2300;DHT22;1158;48.750;9.078;2023-02-13T03:19:59;-3.70;99.90
2300;DHT22;1158;48.750;9.078;2023-02-13T03:22:59;-3.70;99.90
2300;DHT22;1158;48.750;9.078;2023-02-13T03:25:31;-3.80;99.90
2300;DHT22;1158;48.750;9.078;2023-02-13T03:28:09;-3.80;99.90
2300;DHT22;1158;48.750;9.078;2023-02-13T03:31:11;-3.70;99.90
2300;DHT22;1158;48.750;9.078;2023-02-13T03:33:52;-3.70;99.90
2300;DHT22;1158;48.750;9.078;2023-02-13T03:36:28;-3.70;99.90
2300;DHT22;1158;48.750;9.078;2023-02-13T03:39:18;-3.70;99.90
2300;DHT22;1158;48.750;9.078;2023-02-13T03:41:51;-3.60;99.90
2300;DHT22;1158;48.750;9.078;2023-02-13T03:44:25;-3.70;99.90
2300;DHT22;1158;48.750;9.078;2023-02-13T03:46:57;-3.70;99.90
2300;DHT22;1158;48.750;9.078;2023-02-13T03:49:28;-3.80;99.90
2300;DHT22;1158;48.750;9.078;2023-02-13T03:52:17;-3.80;99.90
2300;DHT22;1158;48.750;9.078;2023-02-13T03:54:49;-3.90;99.90
2300;DHT22;1158;48.750;9.078;2023-02-13T03:57:38;-3.90;99.90
2300;DHT22;1158;48.750;9.078;2023-02-13T04:00:25;-3.90;99.90
2300;DHT22;1158;48.750;9.078;2023-02-13T04:02:57;-3.80;99.90
2300;DHT22;1158;48.750;9.078;2023-02-13T04:05:28;-3.80;99.90
2300;DHT22;1158;48.750;9.078;2023-02-13T04:07:55;-3.80;99.90
2300;DHT22;1158;48.750;9.078;2023-02-13T04:10:24;-3.80;99.90
2300;DHT22;1158;48.750;9.078;2023-02-13T04:12:59;-3.80;99.90
2300;DHT22;1158;48.750;9.078;2023-02-13T04:15:30;-3.90;99.90
2300;DHT22;1158;48.750;9.078;2023-02-13T04:18:04;-3.90;99.90
2300;DHT22;1158;48.750;9.078;2023-02-13T04:20:32;-3.90;99.90
2300;DHT22;1158;48.750;9.078;2023-02-13T04:23:03;-3.90;99.90
2300;DHT22;1158;48.750;9.078;2023-02-13T04:25:32;-3.90;99.90
2300;DHT22;1158;48.750;9.078;2023-02-13T04:27:59;-4.00;99.90
2300;DHT22;1158;48.750;9.078;2023-02-13T04:30:25;-3.90;99.90
2300;DHT22;1158;48.750;9.078;2023-02-13T04:32:52;-3.80;99.90
2300;DHT22;1158;48.750;9.078;2023-02-13T04:35:19;-3.90;99.90
2300;DHT22;1158;48.750;9.078;2023-02-13T04:37:45;-3.90;99.90
2300;DHT22;1158;48.750;9.078;2023-02-13T04:40:12;-4.00;99.90
2300;DHT22;1158;48.750;9.078;2023-02-13T04:42:40;-3.90;99.90
2300;DHT22;1158;48.750;9.078;2023-02-13T04:45:08;-4.00;99.90
2300;DHT22;1158;48.750;9.078;2023-02-13T04:47:35;-3.90;99.90
2300;DHT22;1158;48.750;9.078;2023-02-13T04:50:02;-3.90;99.90
2300;DHT22;1158;48.750;9.078;2023-02-13T04:52:28;-3.90;99.90
2300;DHT22;1158;48.750;9.078;2023-02-13T04:54:55;-3.90;99.90
2300;DHT22;1158;48.750;9.078;2023-02-13T04:57:22;-4.00;99.90
2300;DHT22;1158;48.750;9.078;2023-02-13T04:59:50;-4.00;99.90
2300;DHT22;1158;48.750;9.078;2023-02-13T05:02:17;-4.00;99.90
2300;DHT22;1158;48.750;9.078;2023-02-13T05:04:44;-4.00;99.90
2300;DHT22;1158;48.750;9.078;2023-02-13T05:07:10;-4.00;99.90
2300;DHT22;1158;48.750;9.078;2023-02-13T05:09:37;-4.10;99.90
2300;DHT22;1158;48.750;9.078;2023-02-13T05:12:04;-4.00;99.90
2300;DHT22;1158;48.750;9.078;2023-02-13T05:14:31;-4.10;99.90
2300;DHT22;1158;48.750;9.078;2023-02-13T05:16:59;-4.00;99.90
2300;DHT22;1158;48.750;9.078;2023-02-13T05:19:26;-4.10;99.90
2300;DHT22;1158;48.750;9.078;2023-02-13T05:21:52;-4.10;99.90
2300;DHT22;1158;48.750;9.078;2023-02-13T05:24:37;-4.10;99.90
2300;DHT22;1158;48.750;9.078;2023-02-13T05:27:03;-4.20;99.90
2300;DHT22;1158;48.750;9.078;2023-02-13T05:29:30;-4.30;99.90
2300;DHT22;1158;48.750;9.078;2023-02-13T05:31:58;-4.30;99.90
2300;DHT22;1158;48.750;9.078;2023-02-13T05:34:26;-4.20;99.90
2300;DHT22;1158;48.750;9.078;2023-02-13T05:36:53;-4.20;99.90
2300;DHT22;1158;48.750;9.078;2023-02-13T05:39:20;-4.20;99.90
2300;DHT22;1158;48.750;9.078;2023-02-13T05:41:48;-4.20;99.90
2300;DHT22;1158;48.750;9.078;2023-02-13T05:44:15;-4.20;99.90
2300;DHT22;1158;48.750;9.078;2023-02-13T05:46:43;-4.20;99.90
2300;DHT22;1158;48.750;9.078;2023-02-13T05:49:12;-4.20;99.90
2300;DHT22;1158;48.750;9.078;2023-02-13T05:51:40;-4.20;99.90
2300;DHT22;1158;48.750;9.078;2023-02-13T05:54:07;-4.20;99.90
2300;DHT22;1158;48.750;9.078;2023-02-13T05:56:34;-4.30;99.90
2300;DHT22;1158;48.750;9.078;2023-02-13T05:59:00;-4.30;99.90
2300;DHT22;1158;48.750;9.078;2023-02-13T06:01:27;-4.30;99.90
2300;DHT22;1158;48.750;9.078;2023-02-13T06:03:54;-4.30;99.90
2300;DHT22;1158;48.750;9.078;2023-02-13T06:06:22;-4.20;99.90
2300;DHT22;1158;48.750;9.078;2023-02-13T06:08:50;-4.20;99.90
2300;DHT22;1158;48.750;9.078;2023-02-13T06:11:16;-4.20;99.90
2300;DHT22;1158;48.750;9.078;2023-02-13T06:13:43;-4.30;99.90
2300;DHT22;1158;48.750;9.078;2023-02-13T06:16:11;-4.30;99.90
2300;DHT22;1158;48.750;9.078;2023-02-13T06:18:38;-4.30;99.90
2300;DHT22;1158;48.750;9.078;2023-02-13T06:21:05;-4.20;99.90
2300;DHT22;1158;48.750;9.078;2023-02-13T06:23:34;-4.20;99.90
2300;DHT22;1158;48.750;9.078;2023-02-13T06:26:02;-4.20;99.90
2300;DHT22;1158;48.750;9.078;2023-02-13T06:28:29;-4.20;99.90
2300;DHT22;1158;48.750;9.078;2023-02-13T06:30:55;-4.20;99.90
2300;DHT22;1158;48.750;9.078;2023-02-13T06:33:22;-4.20;99.90
2300;DHT22;1158;48.750;9.078;2023-02-13T06:35:49;-4.30;99.90
2300;DHT22;1158;48.750;9.078;2023-02-13T06:38:16;-4.30;99.90
2300;DHT22;1158;48.750;9.078;2023-02-13T06:40:45;-4.30;99.90
2300;DHT22;1158;48.750;9.078;2023-02-13T06:43:12;-4.30;99.90
2300;DHT22;1158;48.750;9.078;2023-02-13T06:45:39;-4.20;99.90
2300;DHT22;1158;48.750;9.078;2023-02-13T06:48:06;-4.20;99.90
2300;DHT22;1158;48.750;9.078;2023-02-13T06:50:33;-4.10;99.90
2300;DHT22;1158;48.750;9.078;2023-02-13T06:53:00;-4.10;99.90
2300;DHT22;1158;48.750;9.078;2023-02-13T06:55:27;-4.10;99.90
2300;DHT22;1158;48.750;9.078;2023-02-13T06:57:55;-4.00;99.90
2300;DHT22;1158;48.750;9.078;2023-02-13T07:00:22;-3.90;99.90
2300;DHT22;1158;48.750;9.078;2023-02-13T07:02:49;-3.80;99.90
2300;DHT22;1158;48.750;9.078;2023-02-13T07:05:15;-3.70;99.90
2300;DHT22;1158;48.750;9.078;2023-02-13T07:07:42;-3.50;99.90
2300;DHT22;1158;48.750;9.078;2023-02-13T07:10:11;-3.40;99.90
2300;DHT22;1158;48.750;9.078;2023-02-13T07:12:38;-3.30;99.90
2300;DHT22;1158;48.750;9.078;2023-02-13T07:15:07;-3.20;99.90
2300;DHT22;1158;48.750;9.078;2023-02-13T07:17:34;-2.60;99.90
2300;DHT22;1158;48.750;9.078;2023-02-13T07:20:01;-1.90;99.90
2300;DHT22;1158;48.750;9.078;2023-02-13T07:22:29;-0.80;99.90
2300;DHT22;1158;48.750;9.078;2023-02-13T07:24:59;-0.20;99.90
2300;DHT22;1158;48.750;9.078;2023-02-13T07:27:26;0.60;99.90
2300;DHT22;1158;48.750;9.078;2023-02-13T07:29:54;0.80;99.90
2300;DHT22;1158;48.750;9.078;2023-02-13T07:32:23;1.10;99.90
2300;DHT22;1158;48.750;9.078;2023-02-13T07:34:50;1.50;99.90
2300;DHT22;1158;48.750;9.078;2023-02-13T07:37:17;1.70;99.90
2300;DHT22;1158;48.750;9.078;2023-02-13T07:39:43;2.40;99.90
2300;DHT22;1158;48.750;9.078;2023-02-13T07:42:10;3.00;99.90
2300;DHT22;1158;48.750;9.078;2023-02-13T07:44:37;3.30;99.90
2300;DHT22;1158;48.750;9.078;2023-02-13T07:47:04;3.60;99.90
2300;DHT22;1158;48.750;9.078;2023-02-13T07:49:32;3.60;99.90
2300;DHT22;1158;48.750;9.078;2023-02-13T07:51:58;4.00;99.90
2300;DHT22;1158;48.750;9.078;2023-02-13T07:54:25;4.20;99.90
2300;DHT22;1158;48.750;9.078;2023-02-13T07:56:52;4.70;99.90
2300;DHT22;1158;48.750;9.078;2023-02-13T07:59:19;5.10;99.90
2300;DHT22;1158;48.750;9.078;2023-02-13T08:01:45;5.50;99.90
2300;DHT22;1158;48.750;9.078;2023-02-13T08:04:12;6.30;99.90
2300;DHT22;1158;48.750;9.078;2023-02-13T08:06:41;6.90;99.90
2300;DHT22;1158;48.750;9.078;2023-02-13T08:09:17;7.40;99.90
2300;DHT22;1158;48.750;9.078;2023-02-13T08:12:02;8.40;99.90
2300;DHT22;1158;48.750;9.078;2023-02-13T08:14:30;9.10;99.90
2300;DHT22;1158;48.750;9.078;2023-02-13T08:16:57;10.10;99.90
2300;DHT22;1158;48.750;9.078;2023-02-13T08:19:25;10.00;99.90
2300;DHT22;1158;48.750;9.078;2023-02-13T08:21:53;10.50;99.90
2300;DHT22;1158;48.750;9.078;2023-02-13T08:24:20;10.90;99.90
2300;DHT22;1158;48.750;9.078;2023-02-13T08:26:47;11.30;99.40
2300;DHT22;1158;48.750;9.078;2023-02-13T08:29:13;11.90;99.00
2300;DHT22;1158;48.750;9.078;2023-02-13T08:31:40;12.30;98.60
2300;DHT22;1158;48.750;9.078;2023-02-13T08:34:08;12.80;97.90
2300;DHT22;1158;48.750;9.078;2023-02-13T08:36:35;12.90;97.30
2300;DHT22;1158;48.750;9.078;2023-02-13T08:39:03;13.00;97.30
2300;DHT22;1158;48.750;9.078;2023-02-13T08:41:29;13.60;96.70
2300;DHT22;1158;48.750;9.078;2023-02-13T08:43:56;13.40;96.60
2300;DHT22;1158;48.750;9.078;2023-02-13T08:46:23;13.40;96.70
2300;DHT22;1158;48.750;9.078;2023-02-13T08:48:50;13.50;96.50
2300;DHT22;1158;48.750;9.078;2023-02-13T08:51:17;12.80;97.00
2300;DHT22;1158;48.750;9.078;2023-02-13T08:53:44;12.70;97.50
2300;DHT22;1158;48.750;9.078;2023-02-13T08:56:12;13.40;97.20
2300;DHT22;1158;48.750;9.078;2023-02-13T08:58:39;14.10;96.20
2300;DHT22;1158;48.750;9.078;2023-02-13T09:01:06;14.50;96.00
2300;DHT22;1158;48.750;9.078;2023-02-13T09:03:33;14.10;95.10
2300;DHT22;1158;48.750;9.078;2023-02-13T09:06:00;14.10;95.40
2300;DHT22;1158;48.750;9.078;2023-02-13T09:08:27;14.10;96.00
2300;DHT22;1158;48.750;9.078;2023-02-13T09:10:56;14.40;95.60
2300;DHT22;1158;48.750;9.078;2023-02-13T09:13:25;14.80;95.00
2300;DHT22;1158;48.750;9.078;2023-02-13T09:15:52;15.30;94.20
2300;DHT22;1158;48.750;9.078;2023-02-13T09:18:19;14.90;94.40
2300;DHT22;1158;48.750;9.078;2023-02-13T09:20:45;15.10;93.80
2300;DHT22;1158;48.750;9.078;2023-02-13T09:23:12;15.10;93.80
2300;DHT22;1158;48.750;9.078;2023-02-13T09:25:39;14.30;93.70
2300;DHT22;1158;48.750;9.078;2023-02-13T09:28:06;12.70;95.90
2300;DHT22;1158;48.750;9.078;2023-02-13T09:30:34;12.90;95.90
2300;DHT22;1158;48.750;9.078;2023-02-13T09:33:01;13.00;96.00
2300;DHT22;1158;48.750;9.078;2023-02-13T09:35:27;12.70;95.80
2300;DHT22;1158;48.750;9.078;2023-02-13T09:37:54;12.50;95.90
2300;DHT22;1158;48.750;9.078;2023-02-13T09:40:25;13.00;95.60
2300;DHT22;1158;48.750;9.078;2023-02-13T09:43:00;13.10;95.70
2300;DHT22;1158;48.750;9.078;2023-02-13T09:45:31;13.70;94.80
2300;DHT22;1158;48.750;9.078;2023-02-13T09:48:00;13.30;94.90
2300;DHT22;1158;48.750;9.078;2023-02-13T09:50:29;13.00;95.50
2300;DHT22;1158;48.750;9.078;2023-02-13T09:52:58;13.30;95.00
2300;DHT22;1158;48.750;9.078;2023-02-13T09:55:28;13.60;95.30
2300;DHT22;1158;48.750;9.078;2023-02-13T09:58:06;14.50;94.50
2300;DHT22;1158;48.750;9.078;2023-02-13T10:00:38;14.20;94.20
2300;DHT22;1158;48.750;9.078;2023-02-13T10:03:18;14.10;94.40
2300;DHT22;1158;48.750;9.078;2023-02-13T10:05:52;14.20;94.10
2300;DHT22;1158;48.750;9.078;2023-02-13T10:08:53;14.90;93.50
2300;DHT22;1158;48.750;9.078;2023-02-13T10:11:36;15.60;92.90
2300;DHT22;1158;48.750;9.078;2023-02-13T10:14:10;14.90;92.80
2300;DHT22;1158;48.750;9.078;2023-02-13T10:16:43;14.90;93.10
2300;DHT22;1158;48.750;9.078;2023-02-13T10:19:19;14.80;93.00
2300;DHT22;1158;48.750;9.078;2023-02-13T10:21:52;14.50;93.00
2300;DHT22;1158;48.750;9.078;2023-02-13T10:24:29;13.90;93.20
2300;DHT22;1158;48.750;9.078;2023-02-13T10:26:58;13.90;93.60
2300;DHT22;1158;48.750;9.078;2023-02-13T10:29:35;13.80;93.40
2300;DHT22;1158;48.750;9.078;2023-02-13T10:32:24;14.40;93.40
2300;DHT22;1158;48.750;9.078;2023-02-13T10:34:57;13.90;93.60
2300;DHT22;1158;48.750;9.078;2023-02-13T10:37:27;13.30;93.70
2300;DHT22;1158;48.750;9.078;2023-02-13T10:39:55;13.00;94.40
2300;DHT22;1158;48.750;9.078;2023-02-13T10:42:28;13.30;94.10
2300;DHT22;1158;48.750;9.078;2023-02-13T10:45:05;12.70;94.40
2300;DHT22;1158;48.750;9.078;2023-02-13T10:47:56;12.70;94.30
2300;DHT22;1158;48.750;9.078;2023-02-13T10:50:31;12.20;94.60
2300;DHT22;1158;48.750;9.078;2023-02-13T10:53:10;12.00;95.00
2300;DHT22;1158;48.750;9.078;2023-02-13T10:55:57;12.10;95.10
2300;DHT22;1158;48.750;9.078;2023-02-13T10:58:31;11.70;94.90
2300;DHT22;1158;48.750;9.078;2023-02-13T11:01:02;12.00;95.30
2300;DHT22;1158;48.750;9.078;2023-02-13T11:03:31;12.50;94.60
2300;DHT22;1158;48.750;9.078;2023-02-13T11:05:59;12.60;94.30
2300;DHT22;1158;48.750;9.078;2023-02-13T11:08:32;12.30;94.80
2300;DHT22;1158;48.750;9.078;2023-02-13T11:11:00;12.50;94.80
2300;DHT22;1158;48.750;9.078;2023-02-13T11:13:28;13.00;94.20
2300;DHT22;1158;48.750;9.078;2023-02-13T11:15:58;13.50;93.90
2300;DHT22;1158;48.750;9.078;2023-02-13T11:18:26;13.80;93.80
2300;DHT22;1158;48.750;9.078;2023-02-13T11:21:01;13.90;93.40
2300;DHT22;1158;48.750;9.078;2023-02-13T11:23:43;14.00;93.30
2300;DHT22;1158;48.750;9.078;2023-02-13T11:26:13;14.70;92.90
2300;DHT22;1158;48.750;9.078;2023-02-13T11:28:47;15.00;92.00
2300;DHT22;1158;48.750;9.078;2023-02-13T11:31:23;14.70;92.00
2300;DHT22;1158;48.750;9.078;2023-02-13T11:33:50;14.60;92.60
2300;DHT22;1158;48.750;9.078;2023-02-13T11:36:24;14.60;91.90
2300;DHT22;1158;48.750;9.078;2023-02-13T11:38:57;14.40;92.00
2300;DHT22;1158;48.750;9.078;2023-02-13T11:41:25;14.10;92.60
2300;DHT22;1158;48.750;9.078;2023-02-13T11:43:54;13.90;92.30
2300;DHT22;1158;48.750;9.078;2023-02-13T11:46:27;13.70;93.00
2300;DHT22;1158;48.750;9.078;2023-02-13T11:48:59;13.80;92.80
2300;DHT22;1158;48.750;9.078;2023-02-13T11:51:40;13.90;92.60
2300;DHT22;1158;48.750;9.078;2023-02-13T11:54:22;13.60;92.30
2300;DHT22;1158;48.750;9.078;2023-02-13T11:56:51;13.10;93.50
2300;DHT22;1158;48.750;9.078;2023-02-13T11:59:22;13.20;93.40
2300;DHT22;1158;48.750;9.078;2023-02-13T12:02:02;13.50;93.40
2300;DHT22;1158;48.750;9.078;2023-02-13T12:04:29;13.90;93.10
2300;DHT22;1158;48.750;9.078;2023-02-13T12:07:00;13.70;92.80
2300;DHT22;1158;48.750;9.078;2023-02-13T12:09:28;13.60;92.90
2300;DHT22;1158;48.750;9.078;2023-02-13T12:11:57;13.50;93.30
2300;DHT22;1158;48.750;9.078;2023-02-13T12:14:31;13.70;93.00
2300;DHT22;1158;48.750;9.078;2023-02-13T12:17:00;13.70;92.90
2300;DHT22;1158;48.750;9.078;2023-02-13T12:19:34;13.50;93.30
2300;DHT22;1158;48.750;9.078;2023-02-13T12:22:21;13.40;93.60
2300;DHT22;1158;48.750;9.078;2023-02-13T12:28:08;13.40;93.50
2300;DHT22;1158;48.750;9.078;2023-02-13T12:31:00;13.50;93.40
2300;DHT22;1158;48.750;9.078;2023-02-13T12:36:43;14.50;93.60
2300;DHT22;1158;48.750;9.078;2023-02-13T12:39:25;14.50;94.70
2300;DHT22;1158;48.750;9.078;2023-02-13T12:44:56;14.10;91.90
2300;DHT22;1158;48.750;9.078;2023-02-13T12:47:28;14.00;92.10
2300;DHT22;1158;48.750;9.078;2023-02-13T12:52:51;14.20;91.70
2300;DHT22;1158;48.750;9.078;2023-02-13T12:55:31;14.10;91.80
2300;DHT22;1158;48.750;9.078;2023-02-13T12:58:12;14.10;91.90
2300;DHT22;1158;48.750;9.078;2023-02-13T13:00:51;14.10;91.90
2300;DHT22;1158;48.750;9.078;2023-02-13T13:03:36;14.30;92.20
2300;DHT22;1158;48.750;9.078;2023-02-13T13:06:28;13.80;91.90
2300;DHT22;1158;48.750;9.078;2023-02-13T13:09:11;13.80;91.60
2300;DHT22;1158;48.750;9.078;2023-02-13T13:12:00;13.60;91.90
2300;DHT22;1158;48.750;9.078;2023-02-13T13:14:36;13.60;92.80
2300;DHT22;1158;48.750;9.078;2023-02-13T13:17:07;13.70;92.10
2300;DHT22;1158;48.750;9.078;2023-02-13T13:19:44;13.70;92.50
2300;DHT22;1158;48.750;9.078;2023-02-13T13:22:18;13.90;91.80
2300;DHT22;1158;48.750;9.078;2023-02-13T13:24:55;13.60;92.00
2300;DHT22;1158;48.750;9.078;2023-02-13T13:27:29;13.70;92.00
2300;DHT22;1158;48.750;9.078;2023-02-13T13:29:59;14.00;92.00
2300;DHT22;1158;48.750;9.078;2023-02-13T13:32:27;13.90;91.80
2300;DHT22;1158;48.750;9.078;2023-02-13T13:34:54;13.60;92.30
2300;DHT22;1158;48.750;9.078;2023-02-13T13:37:29;13.80;92.40
2300;DHT22;1158;48.750;9.078;2023-02-13T13:40:00;14.30;92.20
2300;DHT22;1158;48.750;9.078;2023-02-13T13:42:36;14.60;91.80
2300;DHT22;1158;48.750;9.078;2023-02-13T13:45:19;15.00;91.60
2300;DHT22;1158;48.750;9.078;2023-02-13T13:50:58;15.30;91.20
2300;DHT22;1158;48.750;9.078;2023-02-13T13:53:24;14.80;91.40
2300;DHT22;1158;48.750;9.078;2023-02-13T13:56:05;14.50;91.70
2300;DHT22;1158;48.750;9.078;2023-02-13T13:58:42;14.40;91.40
2300;DHT22;1158;48.750;9.078;2023-02-13T14:01:21;14.90;91.60
2300;DHT22;1158;48.750;9.078;2023-02-13T14:03:49;15.60;91.20
2300;DHT22;1158;48.750;9.078;2023-02-13T14:06:18;15.80;90.20
2300;DHT22;1158;48.750;9.078;2023-02-13T14:09:04;15.80;90.40
2300;DHT22;1158;48.750;9.078;2023-02-13T14:11:37;15.90;90.10
2300;DHT22;1158;48.750;9.078;2023-02-13T14:17:15;15.90;90.10
2300;DHT22;1158;48.750;9.078;2023-02-13T14:19:49;15.70;90.90
2300;DHT22;1158;48.750;9.078;2023-02-13T14:22:33;16.20;90.50
2300;DHT22;1158;48.750;9.078;2023-02-13T14:25:18;15.60;91.10
2300;DHT22;1158;48.750;9.078;2023-02-13T14:27:58;15.70;91.10
2300;DHT22;1158;48.750;9.078;2023-02-13T14:30:27;15.90;91.10
2300;DHT22;1158;48.750;9.078;2023-02-13T14:32:56;16.00;91.00
2300;DHT22;1158;48.750;9.078;2023-02-13T14:35:28;16.10;91.00
2300;DHT22;1158;48.750;9.078;2023-02-13T14:37:57;16.50;90.70
2300;DHT22;1158;48.750;9.078;2023-02-13T14:40:43;17.30;90.10
2300;DHT22;1158;48.750;9.078;2023-02-13T14:43:32;17.20;89.80
2300;DHT22;1158;48.750;9.078;2023-02-13T14:46:23;16.90;90.50
2300;DHT22;1158;48.750;9.078;2023-02-13T14:48:56;16.80;90.70
2300;DHT22;1158;48.750;9.078;2023-02-13T14:51:29;16.70;90.20
2300;DHT22;1158;48.750;9.078;2023-02-13T14:54:02;16.50;90.70
2300;DHT22;1158;48.750;9.078;2023-02-13T14:56:30;16.60;90.60
2300;DHT22;1158;48.750;9.078;2023-02-13T14:59:03;17.10;90.20
2300;DHT22;1158;48.750;9.078;2023-02-13T15:01:34;16.60;90.00
2300;DHT22;1158;48.750;9.078;2023-02-13T15:04:10;16.20;90.90
2300;DHT22;1158;48.750;9.078;2023-02-13T15:06:39;16.60;90.90
2300;DHT22;1158;48.750;9.078;2023-02-13T15:09:25;17.00;90.60
2300;DHT22;1158;48.750;9.078;2023-02-13T15:11:52;17.40;89.70
2300;DHT22;1158;48.750;9.078;2023-02-13T15:14:21;17.10;90.10
2300;DHT22;1158;48.750;9.078;2023-02-13T15:16:53;16.90;90.30
2300;DHT22;1158;48.750;9.078;2023-02-13T15:19:23;16.80;90.30
2300;DHT22;1158;48.750;9.078;2023-02-13T15:21:52;17.00;90.40
2300;DHT22;1158;48.750;9.078;2023-02-13T15:24:21;16.80;90.20
2300;DHT22;1158;48.750;9.078;2023-02-13T15:26:51;16.90;90.20
2300;DHT22;1158;48.750;9.078;2023-02-13T15:29:19;16.60;90.10
2300;DHT22;1158;48.750;9.078;2023-02-13T15:31:46;16.80;90.20
2300;DHT22;1158;48.750;9.078;2023-02-13T15:34:23;16.60;89.80
2300;DHT22;1158;48.750;9.078;2023-02-13T15:36:51;15.70;90.70
2300;DHT22;1158;48.750;9.078;2023-02-13T15:39:19;15.20;91.30
2300;DHT22;1158;48.750;9.078;2023-02-13T15:41:50;14.30;91.80
2300;DHT22;1158;48.750;9.078;2023-02-13T15:44:19;13.30;92.70
2300;DHT22;1158;48.750;9.078;2023-02-13T15:46:48;12.50;93.60
2300;DHT22;1158;48.750;9.078;2023-02-13T15:49:18;12.00;94.50
2300;DHT22;1158;48.750;9.078;2023-02-13T15:51:47;11.40;95.00
2300;DHT22;1158;48.750;9.078;2023-02-13T15:54:25;10.80;95.60
2300;DHT22;1158;48.750;9.078;2023-02-13T15:56:56;10.40;96.30
2300;DHT22;1158;48.750;9.078;2023-02-13T15:59:25;10.20;96.80
2300;DHT22;1158;48.750;9.078;2023-02-13T16:01:54;9.70;97.80
2300;DHT22;1158;48.750;9.078;2023-02-13T16:04:22;9.50;98.30
2300;DHT22;1158;48.750;9.078;2023-02-13T16:06:54;9.10;98.80
2300;DHT22;1158;48.750;9.078;2023-02-13T16:09:28;9.00;99.20
2300;DHT22;1158;48.750;9.078;2023-02-13T16:11:59;9.10;99.00
2300;DHT22;1158;48.750;9.078;2023-02-13T16:14:27;9.00;99.20
2300;DHT22;1158;48.750;9.078;2023-02-13T16:16:57;8.80;99.20
2300;DHT22;1158;48.750;9.078;2023-02-13T16:19:32;8.70;99.40
2300;DHT22;1158;48.750;9.078;2023-02-13T16:22:05;8.60;99.40
2300;DHT22;1158;48.750;9.078;2023-02-13T16:24:33;8.20;99.60
2300;DHT22;1158;48.750;9.078;2023-02-13T16:27:01;7.90;99.90
2300;DHT22;1158;48.750;9.078;2023-02-13T16:29:27;7.50;99.90
2300;DHT22;1158;48.750;9.078;2023-02-13T16:32:04;7.30;99.90
2300;DHT22;1158;48.750;9.078;2023-02-13T16:34:32;7.00;99.90
2300;DHT22;1158;48.750;9.078;2023-02-13T16:36:59;6.80;99.90
2300;DHT22;1158;48.750;9.078;2023-02-13T16:39:29;6.60;99.90
2300;DHT22;1158;48.750;9.078;2023-02-13T16:41:56;6.50;99.90
2300;DHT22;1158;48.750;9.078;2023-02-13T16:44:26;6.30;99.90
2300;DHT22;1158;48.750;9.078;2023-02-13T16:46:57;6.10;99.90
2300;DHT22;1158;48.750;9.078;2023-02-13T16:49:28;5.90;99.90
2300;DHT22;1158;48.750;9.078;2023-02-13T16:52:10;5.80;99.90
2300;DHT22;1158;48.750;9.078;2023-02-13T16:54:52;5.60;99.90
2300;DHT22;1158;48.750;9.078;2023-02-13T16:57:23;5.40;99.90